createdAt,value
2022-10-30T00:00:17.000Z,14.49
2022-10-30T00:01:17.000Z,14.46
2022-10-30T00:02:17.000Z,14.46
2022-10-30T00:03:17.000Z,14.44
2022-10-30T00:04:17.000Z,14.46
2022-10-30T00:05:17.000Z,14.49
2022-10-30T00:06:17.000Z,14.53
2022-10-30T00:07:17.000Z,14.53
2022-10-30T00:08:17.000Z,14.56
2022-10-30T00:09:17.000Z,14.59
2022-10-30T00:10:17.000Z,14.59
2022-10-30T00:11:17.000Z,14.57
2022-10-30T00:12:17.000Z,14.56
2022-10-30T00:13:17.000Z,14.59
2022-10-30T00:14:17.000Z,14.57
2022-10-30T00:15:17.000Z,14.60
2022-10-30T00:16:17.000Z,14.56
2022-10-30T00:17:17.000Z,14.56
2022-10-30T00:18:17.000Z,14.60
2022-10-30T00:19:17.000Z,14.64
2022-10-30T00:20:17.000Z,14.69
2022-10-30T00:21:17.000Z,14.69
2022-10-30T00:22:17.000Z,14.72
2022-10-30T00:23:17.000Z,14.72
2022-10-30T00:24:16.000Z,14.72
2022-10-30T00:25:16.000Z,14.78
2022-10-30T00:26:16.000Z,14.72
2022-10-30T00:27:16.000Z,14.78
2022-10-30T00:28:16.000Z,14.75
2022-10-30T00:29:16.000Z,14.72
2022-10-30T00:30:16.000Z,14.79
2022-10-30T00:31:16.000Z,14.80
2022-10-30T00:32:16.000Z,14.79
2022-10-30T00:33:16.000Z,14.85
2022-10-30T00:34:16.000Z,14.87
2022-10-30T00:35:16.000Z,14.91
2022-10-30T00:36:16.000Z,14.93
2022-10-30T00:37:16.000Z,14.94
2022-10-30T00:38:16.000Z,14.91
2022-10-30T00:39:16.000Z,14.97
2022-10-30T00:40:16.000Z,14.94
2022-10-30T00:41:16.000Z,14.95
2022-10-30T00:42:16.000Z,14.95
2022-10-30T00:43:16.000Z,14.91
2022-10-30T00:44:16.000Z,14.93
2022-10-30T00:45:16.000Z,14.93
2022-10-30T00:46:16.000Z,14.93
2022-10-30T00:47:16.000Z,14.93
2022-10-30T00:48:16.000Z,14.93
2022-10-30T00:49:16.000Z,14.94
2022-10-30T00:50:16.000Z,14.87
2022-10-30T00:51:16.000Z,14.87
2022-10-30T00:52:16.000Z,14.85
2022-10-30T00:53:16.000Z,14.80
2022-10-30T00:54:16.000Z,14.82
2022-10-30T00:55:16.000Z,14.75
2022-10-30T00:56:16.000Z,14.74
2022-10-30T00:57:16.000Z,14.71
2022-10-30T00:58:16.000Z,14.71
2022-10-30T00:59:16.000Z,14.66
2022-10-30T01:00:16.000Z,14.64
2022-10-30T01:01:16.000Z,14.61
2022-10-30T01:02:16.000Z,14.59
2022-10-30T01:03:16.000Z,14.54
2022-10-30T01:04:16.000Z,14.49
2022-10-30T01:05:16.000Z,14.49
2022-10-30T01:06:16.000Z,14.42
2022-10-30T01:07:16.000Z,14.38
2022-10-30T01:08:16.000Z,14.35
2022-10-30T01:09:16.000Z,14.30
2022-10-30T01:10:16.000Z,14.31
2022-10-30T01:11:16.000Z,14.23
2022-10-30T01:12:16.000Z,14.26
2022-10-30T01:13:16.000Z,14.21
2022-10-30T01:14:16.000Z,14.20
2022-10-30T01:15:16.000Z,14.17
2022-10-30T01:16:16.000Z,14.13
2022-10-30T01:17:16.000Z,14.11
2022-10-30T01:18:16.000Z,14.12
2022-10-30T01:19:16.000Z,14.12
2022-10-30T01:20:16.000Z,14.12
2022-10-30T01:21:16.000Z,14.09
2022-10-30T01:22:16.000Z,14.13
2022-10-30T01:23:16.000Z,14.13
2022-10-30T01:24:16.000Z,14.12
2022-10-30T01:25:16.000Z,14.17
2022-10-30T01:26:16.000Z,14.20
2022-10-30T01:27:16.000Z,14.20
2022-10-30T01:28:16.000Z,14.23
2022-10-30T01:29:16.000Z,14.23
2022-10-30T01:30:16.000Z,14.19
2022-10-30T01:31:16.000Z,14.21
2022-10-30T01:32:16.000Z,14.24
2022-10-30T01:33:16.000Z,14.26
2022-10-30T01:34:16.000Z,14.24
2022-10-30T01:35:16.000Z,14.23
2022-10-30T01:36:16.000Z,14.23
2022-10-30T01:37:15.000Z,14.20
2022-10-30T01:38:15.000Z,14.26
2022-10-30T01:39:15.000Z,14.20
2022-10-30T01:40:15.000Z,14.23
2022-10-30T01:41:15.000Z,14.23
2022-10-30T01:42:15.000Z,14.20
2022-10-30T01:43:15.000Z,14.19
2022-10-30T01:44:15.000Z,14.21
2022-10-30T01:45:15.000Z,14.24
2022-10-30T01:46:15.000Z,14.23
2022-10-30T01:47:15.000Z,14.23
2022-10-30T01:48:15.000Z,14.23
2022-10-30T01:49:15.000Z,14.24
2022-10-30T01:50:15.000Z,14.26
2022-10-30T01:51:15.000Z,14.27
2022-10-30T01:52:15.000Z,14.27
2022-10-30T01:53:15.000Z,14.29
2022-10-30T01:54:15.000Z,14.27
2022-10-30T01:55:15.000Z,14.27
2022-10-30T01:56:15.000Z,14.27
2022-10-30T01:57:15.000Z,14.23
2022-10-30T01:58:15.000Z,14.21
2022-10-30T01:59:15.000Z,14.26
2022-10-30T02:00:15.000Z,14.26
2022-10-30T02:01:15.000Z,14.24
2022-10-30T02:02:15.000Z,14.21
2022-10-30T02:03:15.000Z,14.19
2022-10-30T02:04:15.000Z,14.19
2022-10-30T02:05:15.000Z,14.21
2022-10-30T02:06:15.000Z,14.21
2022-10-30T02:07:15.000Z,14.17
2022-10-30T02:08:15.000Z,14.17
2022-10-30T02:09:15.000Z,14.17
2022-10-30T02:10:15.000Z,14.19
2022-10-30T02:11:15.000Z,14.21
2022-10-30T02:12:15.000Z,14.19
2022-10-30T02:13:15.000Z,14.20
2022-10-30T02:14:15.000Z,14.21
2022-10-30T02:15:15.000Z,14.20
2022-10-30T02:16:15.000Z,14.21
2022-10-30T02:17:15.000Z,14.21
2022-10-30T02:18:15.000Z,14.23
2022-10-30T02:19:15.000Z,14.20
2022-10-30T02:20:15.000Z,14.24
2022-10-30T02:21:15.000Z,14.24
2022-10-30T02:22:15.000Z,14.26
2022-10-30T02:23:15.000Z,14.26
2022-10-30T02:24:15.000Z,14.24
2022-10-30T02:25:15.000Z,14.23
2022-10-30T02:26:15.000Z,14.21
2022-10-30T02:27:15.000Z,14.26
2022-10-30T02:28:15.000Z,14.20
2022-10-30T02:29:15.000Z,14.29
2022-10-30T02:30:15.000Z,14.24
2022-10-30T02:31:15.000Z,14.24
2022-10-30T02:32:15.000Z,14.24
2022-10-30T02:33:15.000Z,14.24
2022-10-30T02:34:15.000Z,14.26
2022-10-30T02:35:15.000Z,14.26
2022-10-30T02:36:15.000Z,14.23
2022-10-30T02:37:15.000Z,14.21
2022-10-30T02:38:15.000Z,14.26
2022-10-30T02:39:15.000Z,14.21
2022-10-30T02:40:15.000Z,14.24
2022-10-30T02:41:15.000Z,14.24
2022-10-30T02:42:15.000Z,14.24
2022-10-30T02:43:15.000Z,14.24
2022-10-30T02:44:15.000Z,14.24
2022-10-30T02:45:15.000Z,14.23
2022-10-30T02:46:15.000Z,14.21
2022-10-30T02:47:15.000Z,14.23
2022-10-30T02:48:15.000Z,14.23
2022-10-30T02:49:15.000Z,14.24
2022-10-30T02:50:15.000Z,14.24
2022-10-30T02:51:14.000Z,14.24
2022-10-30T02:52:14.000Z,14.27
2022-10-30T02:53:14.000Z,14.27
2022-10-30T02:54:14.000Z,14.23
2022-10-30T02:55:14.000Z,14.27
2022-10-30T02:56:14.000Z,14.23
2022-10-30T02:57:14.000Z,14.24
2022-10-30T02:58:14.000Z,14.27
2022-10-30T02:59:14.000Z,14.26
2022-10-30T03:00:14.000Z,14.29
2022-10-30T03:01:14.000Z,14.26
2022-10-30T03:02:14.000Z,14.30
2022-10-30T03:03:14.000Z,14.29
2022-10-30T03:04:14.000Z,14.26
2022-10-30T03:05:14.000Z,14.27
2022-10-30T03:06:14.000Z,14.23
2022-10-30T03:07:14.000Z,14.24
2022-10-30T03:08:14.000Z,14.24
2022-10-30T03:09:14.000Z,14.24
2022-10-30T03:10:14.000Z,14.26
2022-10-30T03:11:14.000Z,14.26
2022-10-30T03:12:14.000Z,14.23
2022-10-30T03:13:14.000Z,14.24
2022-10-30T03:14:14.000Z,14.23
2022-10-30T03:15:14.000Z,14.20
2022-10-30T03:16:14.000Z,14.23
2022-10-30T03:17:14.000Z,14.20
2022-10-30T03:18:14.000Z,14.19
2022-10-30T03:19:14.000Z,14.17
2022-10-30T03:20:14.000Z,14.13
2022-10-30T03:21:14.000Z,14.13
2022-10-30T03:22:14.000Z,14.09
2022-10-30T03:23:14.000Z,14.09
2022-10-30T03:24:14.000Z,14.05
2022-10-30T03:25:14.000Z,14.06
2022-10-30T03:26:14.000Z,14.08
2022-10-30T03:27:14.000Z,14.05
2022-10-30T03:28:14.000Z,14.06
2022-10-30T03:29:14.000Z,14.04
2022-10-30T03:30:14.000Z,14.06
2022-10-30T03:31:14.000Z,14.04
2022-10-30T03:32:14.000Z,14.01
2022-10-30T03:33:14.000Z,14.02
2022-10-30T03:34:14.000Z,14.01
2022-10-30T03:35:14.000Z,14.01
2022-10-30T03:36:14.000Z,13.99
2022-10-30T03:37:14.000Z,13.98
2022-10-30T03:38:14.000Z,14.02
2022-10-30T03:39:14.000Z,13.99
2022-10-30T03:40:14.000Z,13.94
2022-10-30T03:41:14.000Z,13.98
2022-10-30T03:42:14.000Z,13.99
2022-10-30T03:43:14.000Z,13.98
2022-10-30T03:44:14.000Z,13.94
2022-10-30T03:45:14.000Z,13.91
2022-10-30T03:46:14.000Z,13.96
2022-10-30T03:47:14.000Z,13.90
2022-10-30T03:48:14.000Z,13.94
2022-10-30T03:49:14.000Z,13.90
2022-10-30T03:50:14.000Z,13.94
2022-10-30T03:51:14.000Z,13.93
2022-10-30T03:52:14.000Z,13.94
2022-10-30T03:53:14.000Z,13.93
2022-10-30T03:54:14.000Z,13.96
2022-10-30T03:55:14.000Z,13.93
2022-10-30T03:56:14.000Z,13.94
2022-10-30T03:57:14.000Z,13.96
2022-10-30T03:58:14.000Z,13.91
2022-10-30T03:59:14.000Z,13.94
2022-10-30T04:00:14.000Z,13.99
2022-10-30T04:01:14.000Z,13.98
2022-10-30T04:02:14.000Z,14.01
2022-10-30T04:03:14.000Z,14.02
2022-10-30T04:04:13.000Z,14.02
2022-10-30T04:05:13.000Z,14.02
2022-10-30T04:06:13.000Z,14.01
2022-10-30T04:07:13.000Z,14.02
2022-10-30T04:08:13.000Z,14.02
2022-10-30T04:09:13.000Z,14.02
2022-10-30T04:10:13.000Z,14.04
2022-10-30T04:11:13.000Z,14.02
2022-10-30T04:12:13.000Z,14.05
2022-10-30T04:13:13.000Z,14.05
2022-10-30T04:14:13.000Z,14.05
2022-10-30T04:15:13.000Z,14.08
2022-10-30T04:16:13.000Z,14.06
2022-10-30T04:17:13.000Z,14.05
2022-10-30T04:18:13.000Z,14.08
2022-10-30T04:19:13.000Z,14.11
2022-10-30T04:20:13.000Z,14.12
2022-10-30T04:21:13.000Z,14.16
2022-10-30T04:22:13.000Z,14.17
2022-10-30T04:23:13.000Z,14.17
2022-10-30T04:24:13.000Z,14.19
2022-10-30T04:25:13.000Z,14.17
2022-10-30T04:26:13.000Z,14.21
2022-10-30T04:27:13.000Z,14.20
2022-10-30T04:28:13.000Z,14.27
2022-10-30T04:29:13.000Z,14.31
2022-10-30T04:30:13.000Z,14.35
2022-10-30T04:31:13.000Z,14.34
2022-10-30T04:32:13.000Z,14.31
2022-10-30T04:33:13.000Z,14.35
2022-10-30T04:34:13.000Z,14.38
2022-10-30T04:35:13.000Z,14.31
2022-10-30T04:36:13.000Z,14.34
2022-10-30T04:37:13.000Z,14.34
2022-10-30T04:38:13.000Z,14.36
2022-10-30T04:39:13.000Z,14.31
2022-10-30T04:40:13.000Z,14.36
2022-10-30T04:41:13.000Z,14.31
2022-10-30T04:42:13.000Z,14.29
2022-10-30T04:43:13.000Z,14.30
2022-10-30T04:44:13.000Z,14.27
2022-10-30T04:45:13.000Z,14.27
2022-10-30T04:46:13.000Z,14.24
2022-10-30T04:47:13.000Z,14.23
2022-10-30T04:48:13.000Z,14.23
2022-10-30T04:49:13.000Z,14.23
2022-10-30T04:50:13.000Z,14.20
2022-10-30T04:51:13.000Z,14.20
2022-10-30T04:52:13.000Z,14.19
2022-10-30T04:53:13.000Z,14.13
2022-10-30T04:54:13.000Z,14.11
2022-10-30T04:55:13.000Z,14.16
2022-10-30T04:56:13.000Z,14.12
2022-10-30T04:57:13.000Z,14.20
2022-10-30T04:58:13.000Z,14.20
2022-10-30T04:59:13.000Z,14.26
2022-10-30T05:00:13.000Z,14.24
2022-10-30T05:01:13.000Z,14.24
2022-10-30T05:02:13.000Z,14.23
2022-10-30T05:03:13.000Z,14.24
2022-10-30T05:04:13.000Z,14.24
2022-10-30T05:05:13.000Z,14.21
2022-10-30T05:06:13.000Z,14.19
2022-10-30T05:07:13.000Z,14.23
2022-10-30T05:08:13.000Z,14.21
2022-10-30T05:09:13.000Z,14.24
2022-10-30T05:10:13.000Z,14.21
2022-10-30T05:11:13.000Z,14.20
2022-10-30T05:12:13.000Z,14.19
2022-10-30T05:13:13.000Z,14.16
2022-10-30T05:14:13.000Z,14.17
2022-10-30T05:15:13.000Z,14.16
2022-10-30T05:16:13.000Z,14.16
2022-10-30T05:17:12.000Z,14.19
2022-10-30T05:18:12.000Z,14.19
2022-10-30T05:19:12.000Z,14.13
2022-10-30T05:20:12.000Z,14.12
2022-10-30T05:21:12.000Z,14.17
2022-10-30T05:22:12.000Z,14.08
2022-10-30T05:23:12.000Z,14.11
2022-10-30T05:24:12.000Z,14.09
2022-10-30T05:25:12.000Z,14.13
2022-10-30T05:26:12.000Z,14.06
2022-10-30T05:27:12.000Z,14.04
2022-10-30T05:28:12.000Z,14.06
2022-10-30T05:29:12.000Z,14.02
2022-10-30T05:30:12.000Z,14.01
2022-10-30T05:31:12.000Z,14.01
2022-10-30T05:32:12.000Z,14.02
2022-10-30T05:33:12.000Z,14.01
2022-10-30T05:34:12.000Z,14.01
2022-10-30T05:35:12.000Z,14.01
2022-10-30T05:36:12.000Z,14.02
2022-10-30T05:37:12.000Z,14.01
2022-10-30T05:38:12.000Z,14.01
2022-10-30T05:39:12.000Z,14.02
2022-10-30T05:40:12.000Z,14.04
2022-10-30T05:41:12.000Z,14.08
2022-10-30T05:42:12.000Z,14.09
2022-10-30T05:43:12.000Z,14.06
2022-10-30T05:44:12.000Z,14.12
2022-10-30T05:45:12.000Z,14.11
2022-10-30T05:46:12.000Z,14.12
2022-10-30T05:47:12.000Z,14.13
2022-10-30T05:48:12.000Z,14.13
2022-10-30T05:49:12.000Z,14.20
2022-10-30T05:50:12.000Z,14.17
2022-10-30T05:51:12.000Z,14.19
2022-10-30T05:52:12.000Z,14.19
2022-10-30T05:53:12.000Z,14.20
2022-10-30T05:54:12.000Z,14.24
2022-10-30T05:55:12.000Z,14.24
2022-10-30T05:56:12.000Z,14.29
2022-10-30T05:57:12.000Z,14.27
2022-10-30T05:58:12.000Z,14.30
2022-10-30T05:59:12.000Z,14.30
2022-10-30T06:00:12.000Z,14.31
2022-10-30T06:01:12.000Z,14.34
2022-10-30T06:02:12.000Z,14.31
2022-10-30T06:03:12.000Z,14.31
2022-10-30T06:04:12.000Z,14.35
2022-10-30T06:05:12.000Z,14.31
2022-10-30T06:06:12.000Z,14.34
2022-10-30T06:07:12.000Z,14.29
2022-10-30T06:08:12.000Z,14.29
2022-10-30T06:09:12.000Z,14.29
2022-10-30T06:10:12.000Z,14.27
2022-10-30T06:11:12.000Z,14.24
2022-10-30T06:12:12.000Z,14.26
2022-10-30T06:13:12.000Z,14.24
2022-10-30T06:14:12.000Z,14.26
2022-10-30T06:15:12.000Z,14.26
2022-10-30T06:16:12.000Z,14.24
2022-10-30T06:17:12.000Z,14.21
2022-10-30T06:18:12.000Z,14.24
2022-10-30T06:19:12.000Z,14.23
2022-10-30T06:20:12.000Z,14.21
2022-10-30T06:21:12.000Z,14.21
2022-10-30T06:22:12.000Z,14.20
2022-10-30T06:23:12.000Z,14.20
2022-10-30T06:24:12.000Z,14.17
2022-10-30T06:25:12.000Z,14.21
2022-10-30T06:26:12.000Z,14.20
2022-10-30T06:27:12.000Z,14.23
2022-10-30T06:28:12.000Z,14.21
2022-10-30T06:29:12.000Z,14.20
2022-10-30T06:30:12.000Z,14.20
2022-10-30T06:31:11.000Z,14.19
2022-10-30T06:32:11.000Z,14.19
2022-10-30T06:33:11.000Z,14.16
2022-10-30T06:34:11.000Z,14.19
2022-10-30T06:35:11.000Z,14.21
2022-10-30T06:36:11.000Z,14.19
2022-10-30T06:36:11.000Z,14.19
2022-10-30T06:36:11.000Z,14.19
2022-10-30T06:37:11.000Z,14.23
2022-10-30T06:37:11.000Z,14.23
2022-10-30T06:37:11.000Z,14.23
2022-10-30T06:38:11.000Z,14.24
2022-10-30T06:38:11.000Z,14.24
2022-10-30T06:38:11.000Z,14.24
2022-10-30T06:39:11.000Z,14.21
2022-10-30T06:39:11.000Z,14.21
2022-10-30T06:39:11.000Z,14.21
2022-10-30T06:40:11.000Z,14.26
2022-10-30T06:40:11.000Z,14.26
2022-10-30T06:40:11.000Z,14.26
2022-10-30T06:41:11.000Z,14.26
2022-10-30T06:41:11.000Z,14.26
2022-10-30T06:42:11.000Z,14.30
2022-10-30T06:42:11.000Z,14.30
2022-10-30T06:43:11.000Z,14.27
2022-10-30T06:43:11.000Z,14.27
2022-10-30T06:44:11.000Z,14.30
2022-10-30T06:44:11.000Z,14.30
2022-10-30T06:45:11.000Z,14.38
2022-10-30T06:45:11.000Z,14.38
2022-10-30T06:46:11.000Z,14.38
2022-10-30T06:47:11.000Z,14.42
2022-10-30T06:48:11.000Z,14.42
2022-10-30T06:49:11.000Z,14.48
2022-10-30T06:50:11.000Z,14.52
2022-10-30T06:51:11.000Z,14.54
2022-10-30T06:52:11.000Z,14.57
2022-10-30T06:53:11.000Z,14.64
2022-10-30T06:54:11.000Z,14.69
2022-10-30T06:55:11.000Z,14.78
2022-10-30T06:56:11.000Z,14.79
2022-10-30T06:57:11.000Z,14.80
2022-10-30T06:58:11.000Z,14.85
2022-10-30T06:59:11.000Z,14.90
2022-10-30T07:00:11.000Z,14.93
2022-10-30T07:01:11.000Z,14.91
2022-10-30T07:02:11.000Z,14.90
2022-10-30T07:03:11.000Z,14.97
2022-10-30T07:04:11.000Z,15.00
2022-10-30T07:05:11.000Z,14.95
2022-10-30T07:06:11.000Z,14.98
2022-10-30T07:07:11.000Z,15.00
2022-10-30T07:08:11.000Z,15.01
2022-10-30T07:09:11.000Z,14.98
2022-10-30T07:10:11.000Z,14.98
2022-10-30T07:11:11.000Z,15.00
2022-10-30T07:12:11.000Z,15.00
2022-10-30T07:13:11.000Z,15.04
2022-10-30T07:14:11.000Z,15.00
2022-10-30T07:15:11.000Z,15.03
2022-10-30T07:16:11.000Z,15.04
2022-10-30T07:17:11.000Z,15.11
2022-10-30T07:18:11.000Z,15.11
2022-10-30T07:19:11.000Z,15.09
2022-10-30T07:20:11.000Z,15.09
2022-10-30T07:21:11.000Z,15.05
2022-10-30T07:22:11.000Z,15.05
2022-10-30T07:23:11.000Z,15.03
2022-10-30T07:24:11.000Z,15.04
2022-10-30T07:25:11.000Z,15.07
2022-10-30T07:26:11.000Z,15.07
2022-10-30T07:26:11.000Z,15.07
2022-10-30T07:27:11.000Z,15.13
2022-10-30T07:27:11.000Z,15.13
2022-10-30T07:28:11.000Z,15.09
2022-10-30T07:28:11.000Z,15.09
2022-10-30T07:29:11.000Z,15.13
2022-10-30T07:29:11.000Z,15.13
2022-10-30T07:30:11.000Z,15.15
2022-10-30T07:30:11.000Z,15.15
2022-10-30T07:31:11.000Z,15.12
2022-10-30T07:32:11.000Z,15.15
2022-10-30T07:33:11.000Z,15.18
2022-10-30T07:34:11.000Z,15.19
2022-10-30T07:35:11.000Z,15.18
2022-10-30T07:36:11.000Z,15.19
2022-10-30T07:37:11.000Z,15.18
2022-10-30T07:38:11.000Z,15.18
2022-10-30T07:39:11.000Z,15.18
2022-10-30T07:40:11.000Z,15.18
2022-10-30T07:41:11.000Z,15.20
2022-10-30T07:42:11.000Z,15.19
2022-10-30T07:43:11.000Z,15.19
2022-10-30T07:44:10.000Z,15.22
2022-10-30T07:45:10.000Z,15.23
2022-10-30T07:46:10.000Z,15.27
2022-10-30T07:47:10.000Z,15.25
2022-10-30T07:48:10.000Z,15.30
2022-10-30T07:49:10.000Z,15.31
2022-10-30T07:50:10.000Z,15.33
2022-10-30T07:51:10.000Z,15.35
2022-10-30T07:52:10.000Z,15.35
2022-10-30T07:53:10.000Z,15.38
2022-10-30T07:54:10.000Z,15.41
2022-10-30T07:55:10.000Z,15.41
2022-10-30T07:56:10.000Z,15.43
2022-10-30T07:57:10.000Z,15.46
2022-10-30T07:58:10.000Z,15.52
2022-10-30T07:59:10.000Z,15.52
2022-10-30T08:00:10.000Z,15.53
2022-10-30T08:01:10.000Z,15.58
2022-10-30T08:01:10.000Z,15.58
2022-10-30T08:02:10.000Z,15.58
2022-10-30T08:02:10.000Z,15.58
2022-10-30T08:03:10.000Z,15.59
2022-10-30T08:03:10.000Z,15.59
2022-10-30T08:04:10.000Z,15.62
2022-10-30T08:04:10.000Z,15.62
2022-10-30T08:05:10.000Z,15.64
2022-10-30T08:05:10.000Z,15.64
2022-10-30T08:06:10.000Z,15.64
2022-10-30T08:07:10.000Z,15.66
2022-10-30T08:08:10.000Z,15.66
2022-10-30T08:09:10.000Z,15.71
2022-10-30T08:10:10.000Z,15.67
2022-10-30T08:11:10.000Z,15.70
2022-10-30T08:12:10.000Z,15.70
2022-10-30T08:13:10.000Z,15.68
2022-10-30T08:14:10.000Z,15.68
2022-10-30T08:15:10.000Z,15.68
2022-10-30T08:16:10.000Z,15.68
2022-10-30T08:17:10.000Z,15.67
2022-10-30T08:18:10.000Z,15.67
2022-10-30T08:19:10.000Z,15.67
2022-10-30T08:20:10.000Z,15.67
2022-10-30T08:21:10.000Z,15.62
2022-10-30T08:22:10.000Z,15.60
2022-10-30T08:23:10.000Z,15.62
2022-10-30T08:24:10.000Z,15.59
2022-10-30T08:25:10.000Z,15.59
2022-10-30T08:26:10.000Z,15.64
2022-10-30T08:27:10.000Z,15.58
2022-10-30T08:28:10.000Z,15.59
2022-10-30T08:29:10.000Z,15.58
2022-10-30T08:30:10.000Z,15.55
2022-10-30T08:31:10.000Z,15.56
2022-10-30T08:32:10.000Z,15.58
2022-10-30T08:33:10.000Z,15.64
2022-10-30T08:34:10.000Z,15.64
2022-10-30T08:35:10.000Z,15.67
2022-10-30T08:36:10.000Z,15.66
2022-10-30T08:37:10.000Z,15.67
2022-10-30T08:38:10.000Z,15.68
2022-10-30T08:39:10.000Z,15.73
2022-10-30T08:40:10.000Z,15.78
2022-10-30T08:41:10.000Z,15.84
2022-10-30T08:42:10.000Z,15.89
2022-10-30T08:43:10.000Z,15.91
2022-10-30T08:44:10.000Z,15.95
2022-10-30T08:45:10.000Z,15.99
2022-10-30T08:46:10.000Z,16.08
2022-10-30T08:47:10.000Z,16.14
2022-10-30T08:48:10.000Z,16.18
2022-10-30T08:49:10.000Z,16.25
2022-10-30T08:50:10.000Z,16.34
2022-10-30T08:51:10.000Z,16.42
2022-10-30T08:52:10.000Z,16.48
2022-10-30T08:53:10.000Z,16.54
2022-10-30T08:54:10.000Z,16.65
2022-10-30T08:55:10.000Z,16.67
2022-10-30T08:56:10.000Z,16.73
2022-10-30T08:57:09.000Z,16.80
2022-10-30T08:58:09.000Z,16.88
2022-10-30T08:59:09.000Z,16.92
2022-10-30T09:00:09.000Z,17.02
2022-10-30T09:01:09.000Z,17.06
2022-10-30T09:02:09.000Z,17.14
2022-10-30T09:03:09.000Z,17.21
2022-10-30T09:04:09.000Z,17.27
2022-10-30T09:05:09.000Z,17.33
2022-10-30T09:06:09.000Z,17.43
2022-10-30T09:07:09.000Z,17.45
2022-10-30T09:08:09.000Z,17.55
2022-10-30T09:09:09.000Z,17.62
2022-10-30T09:10:09.000Z,17.70
2022-10-30T09:11:09.000Z,17.79
2022-10-30T09:12:09.000Z,17.87
2022-10-30T09:13:09.000Z,17.92
2022-10-30T09:14:09.000Z,17.96
2022-10-30T09:15:09.000Z,18.01
2022-10-30T09:16:09.000Z,18.02
2022-10-30T09:17:09.000Z,18.11
2022-10-30T09:18:09.000Z,18.17
2022-10-30T09:19:09.000Z,18.25
2022-10-30T09:20:09.000Z,18.29
2022-10-30T09:21:09.000Z,18.35
2022-10-30T09:22:09.000Z,18.46
2022-10-30T09:23:09.000Z,18.50
2022-10-30T09:24:09.000Z,18.57
2022-10-30T09:25:09.000Z,18.65
2022-10-30T09:26:09.000Z,18.71
2022-10-30T09:27:09.000Z,18.78
2022-10-30T09:28:09.000Z,18.91
2022-10-30T09:29:09.000Z,18.99
2022-10-30T09:30:09.000Z,19.02
2022-10-30T09:31:09.000Z,19.15
2022-10-30T09:32:09.000Z,19.20
2022-10-30T09:33:09.000Z,19.27
2022-10-30T09:34:09.000Z,19.35
2022-10-30T09:35:09.000Z,19.42
2022-10-30T09:36:09.000Z,19.49
2022-10-30T09:37:09.000Z,19.52
2022-10-30T09:38:09.000Z,19.62
2022-10-30T09:39:09.000Z,19.67
2022-10-30T09:40:09.000Z,19.76
2022-10-30T09:41:09.000Z,19.82
2022-10-30T09:42:09.000Z,19.87
2022-10-30T09:43:09.000Z,19.92
2022-10-30T09:44:09.000Z,20.00
2022-10-30T09:45:09.000Z,20.04
2022-10-30T09:46:09.000Z,20.13
2022-10-30T09:47:09.000Z,20.19
2022-10-30T09:48:09.000Z,20.26
2022-10-30T09:49:09.000Z,20.31
2022-10-30T09:50:09.000Z,20.37
2022-10-30T09:51:09.000Z,20.42
2022-10-30T09:52:09.000Z,20.54
2022-10-30T09:53:09.000Z,20.57
2022-10-30T09:54:09.000Z,20.63
2022-10-30T09:55:09.000Z,20.66
2022-10-30T09:56:09.000Z,20.75
2022-10-30T09:57:09.000Z,20.78
2022-10-30T09:58:09.000Z,20.82
2022-10-30T09:59:09.000Z,20.88
2022-10-30T10:00:09.000Z,20.93
2022-10-30T10:01:09.000Z,20.96
2022-10-30T10:02:09.000Z,21.00
2022-10-30T10:03:09.000Z,21.06
2022-10-30T10:04:09.000Z,21.09
2022-10-30T10:05:09.000Z,21.18
2022-10-30T10:06:09.000Z,21.24
2022-10-30T10:07:09.000Z,21.30
2022-10-30T10:08:09.000Z,21.34
2022-10-30T10:09:09.000Z,21.42
2022-10-30T10:10:08.000Z,21.48
2022-10-30T10:11:08.000Z,21.53
2022-10-30T10:12:08.000Z,21.56
2022-10-30T10:13:08.000Z,21.61
2022-10-30T10:14:08.000Z,21.71
2022-10-30T10:15:08.000Z,21.79
2022-10-30T10:16:08.000Z,21.91
2022-10-30T10:17:08.000Z,21.98
2022-10-30T10:18:08.000Z,22.02
2022-10-30T10:19:08.000Z,22.06
2022-10-30T10:20:08.000Z,22.08
2022-10-30T10:21:08.000Z,22.14
2022-10-30T10:22:08.000Z,22.21
2022-10-30T10:23:08.000Z,22.27
2022-10-30T10:24:08.000Z,22.33
2022-10-30T10:25:08.000Z,22.41
2022-10-30T10:26:08.000Z,22.49
2022-10-30T10:27:08.000Z,22.60
2022-10-30T10:28:08.000Z,22.69
2022-10-30T10:29:08.000Z,22.79
2022-10-30T10:30:08.000Z,22.93
2022-10-30T10:31:08.000Z,23.06
2022-10-30T10:32:08.000Z,23.14
2022-10-30T10:33:08.000Z,23.23
2022-10-30T10:34:08.000Z,23.31
2022-10-30T10:35:08.000Z,23.47
2022-10-30T10:36:08.000Z,23.49
2022-10-30T10:37:08.000Z,23.57
2022-10-30T10:38:08.000Z,23.68
2022-10-30T10:39:08.000Z,23.71
2022-10-30T10:40:08.000Z,23.79
2022-10-30T10:41:08.000Z,23.84
2022-10-30T10:42:08.000Z,23.90
2022-10-30T10:43:08.000Z,23.84
2022-10-30T10:44:08.000Z,23.92
2022-10-30T10:45:08.000Z,23.93
2022-10-30T10:46:08.000Z,23.93
2022-10-30T10:47:08.000Z,23.97
2022-10-30T10:48:08.000Z,24.05
2022-10-30T10:49:08.000Z,24.12
2022-10-30T10:50:08.000Z,24.09
2022-10-30T10:51:08.000Z,24.15
2022-10-30T10:52:08.000Z,24.24
2022-10-30T10:53:08.000Z,24.34
2022-10-30T10:54:08.000Z,24.48
2022-10-30T10:55:08.000Z,24.49
2022-10-30T10:56:08.000Z,24.59
2022-10-30T10:57:08.000Z,24.70
2022-10-30T10:58:08.000Z,24.71
2022-10-30T10:59:08.000Z,24.74
2022-10-30T11:00:08.000Z,24.67
2022-10-30T11:01:08.000Z,24.75
2022-10-30T11:02:08.000Z,24.86
2022-10-30T11:03:08.000Z,25.04
2022-10-30T11:04:08.000Z,25.16
2022-10-30T11:05:08.000Z,25.20
2022-10-30T11:06:08.000Z,25.22
2022-10-30T11:07:08.000Z,25.17
2022-10-30T11:08:08.000Z,25.16
2022-10-30T11:09:08.000Z,25.23
2022-10-30T11:10:08.000Z,25.22
2022-10-30T11:11:08.000Z,25.26
2022-10-30T11:12:08.000Z,25.31
2022-10-30T11:13:08.000Z,25.42
2022-10-30T11:14:08.000Z,25.38
2022-10-30T11:15:08.000Z,25.45
2022-10-30T11:16:08.000Z,25.51
2022-10-30T11:17:08.000Z,25.60
2022-10-30T11:18:08.000Z,25.67
2022-10-30T11:19:08.000Z,25.74
2022-10-30T11:20:08.000Z,25.82
2022-10-30T11:21:08.000Z,25.86
2022-10-30T11:22:08.000Z,25.89
2022-10-30T11:23:07.000Z,25.93
2022-10-30T11:24:07.000Z,25.98
2022-10-30T11:25:07.000Z,26.06
2022-10-30T11:26:07.000Z,26.12
2022-10-30T11:27:07.000Z,26.21
2022-10-30T11:28:07.000Z,26.23
2022-10-30T11:29:07.000Z,26.19
2022-10-30T11:30:07.000Z,26.23
2022-10-30T11:31:07.000Z,26.31
2022-10-30T11:32:07.000Z,26.38
2022-10-30T11:33:07.000Z,26.39
2022-10-30T11:34:07.000Z,26.44
2022-10-30T11:35:07.000Z,26.46
2022-10-30T11:36:07.000Z,26.50
2022-10-30T11:37:07.000Z,26.56
2022-10-30T11:38:07.000Z,26.57
2022-10-30T11:39:07.000Z,26.50
2022-10-30T11:40:07.000Z,26.50
2022-10-30T11:41:07.000Z,26.41
2022-10-30T11:42:07.000Z,26.41
2022-10-30T11:43:07.000Z,26.36
2022-10-30T11:44:07.000Z,26.35
2022-10-30T11:45:07.000Z,26.23
2022-10-30T11:46:07.000Z,26.13
2022-10-30T11:47:07.000Z,26.13
2022-10-30T11:48:07.000Z,26.13
2022-10-30T11:49:07.000Z,26.16
2022-10-30T11:50:07.000Z,26.20
2022-10-30T11:51:07.000Z,26.20
2022-10-30T11:52:07.000Z,26.21
2022-10-30T11:53:07.000Z,26.28
2022-10-30T11:54:07.000Z,26.31
2022-10-30T11:55:07.000Z,26.34
2022-10-30T11:56:07.000Z,26.38
2022-10-30T11:57:07.000Z,26.44
2022-10-30T11:58:07.000Z,26.53
2022-10-30T11:59:07.000Z,26.65
2022-10-30T12:00:07.000Z,26.64
2022-10-30T12:01:07.000Z,26.71
2022-10-30T12:02:07.000Z,26.75
2022-10-30T12:03:07.000Z,26.87
2022-10-30T12:04:07.000Z,26.94
2022-10-30T12:05:07.000Z,27.02
2022-10-30T12:06:07.000Z,27.11
2022-10-30T12:07:07.000Z,27.15
2022-10-30T12:08:07.000Z,27.09
2022-10-30T12:09:07.000Z,26.90
2022-10-30T12:10:07.000Z,26.84
2022-10-30T12:11:07.000Z,26.78
2022-10-30T12:12:07.000Z,26.66
2022-10-30T12:13:07.000Z,26.66
2022-10-30T12:14:07.000Z,26.61
2022-10-30T12:15:07.000Z,26.49
2022-10-30T12:16:07.000Z,26.46
2022-10-30T12:17:07.000Z,26.46
2022-10-30T12:18:07.000Z,26.42
2022-10-30T12:19:07.000Z,26.36
2022-10-30T12:20:07.000Z,26.34
2022-10-30T12:21:07.000Z,26.32
2022-10-30T12:22:07.000Z,26.34
2022-10-30T12:23:07.000Z,26.36
2022-10-30T12:24:07.000Z,26.47
2022-10-30T12:25:07.000Z,26.50
2022-10-30T12:26:07.000Z,26.50
2022-10-30T12:27:07.000Z,26.53